Share

Petrified Forest National Park, AZ

Sundance Springs (KAZSNOWF7) Elev 5564 ft | 34.52 °N, 110.06 °W | Change Station

Current weather conditions updated 1 second ago

Clear
Clear
43.2 °F
Feels Like 43 °F
N
0.0
Wind Variable Wind from NE
Gusts 0.0 mph
Sunrise 5:43 AM
Sunset 6:54 PM
Moon Waning Gibbous

Today is forecast to be Cooler than yesterday.

Pressure 29.88 in
Visibility 10.0 miles
Clouds Clear
Windchill 43 °F
Dew Point 29 °F
Humidity 57%
Rainfall 0.00 in
Snow Depth Not available.
UV 0 out of 16
Pollen 9.10 out of 12
Air Quality Not available.
Flu Activity Local Activity
METAR KINW 180956Z AUTO 11008KT 10SM CLR 09/M05 A3003 RMK AO2 SLP117 T00891050 TSNO

More Conditions Fewer Conditions

Pressure 29.88 in
Visibility 10.0 miles
Clouds Clear
Windchill 43 °F
Dew Point 29 °F
Humidity 57%
Rainfall 0.00 in
Snow Depth Not available.
UV 0 out of 16
Pollen 9.10 out of 12
Air Quality Not available.
Flu Activity Local Activity
METAR KINW 180956Z AUTO 11008KT 10SM CLR 09/M05 A3003 RMK AO2 SLP117 T00891050 TSNO

More Conditions Fewer Conditions

10-Day Forecast

Almanac

Astronomy

Apr. 18, 2014 Rise Set
Actual Time 5:43 AM MST 6:54 PM MST
Civil Twilight 5:17 AM MST 7:20 PM MST
Nautical Twilight 4:46 AM MST 7:51 PM MST
Astronomical Twilight 4:14 AM MST 8:24 PM MST
Moon 10:37 PM MST 8:14 AM MST
Length of Visible Light 14h 02m
Length of Day
13h 10m
Tomorrow will be 2m 2s longer.
Waning Gibbous, 89% of the Moon is Illuminated
Today
Waning Gibbous
Apr 22
Last Quarter
Apr 29
New
May 6
First Quarter
May 14
Full

Today's Extremes

State Highs State Lows

Community

  • SUNRISE THROUGH THE TREES.
    SUNRISE THROUGH THE TREES.
  • Dog Wood Blossoms
    Dog Wood Blossoms
  • Morning Light
    Morning Light
  • New Day
    New Day
  • Lake Michigan Sunrise
    Lake Michigan Sunrise

WunderPhotos

Upload Photos

1,702,311 photos uploaded!

Nearby

Snow Depth

Station Depth Elevation
Heber 1 in 7640 ft
Maverick Fork 1 in 9200 ft
Promontory 0 in 7930 ft
Wildcat 0 in 7850 ft
Beaver Head 0 in 7990 ft

Coastal Water Temperatures

Place Temperature
No Stations Reporting

Earthquake Activity

City Distance Mag. Time & Date
No recent earthquake activity has been reported nearby.
Minimum magnitude displayed is 2.5.

Nearby Weather Stations

Station Location Temp. Windchill Dew Point Humidity Wind Precip. Elev Updated Type
HADS PETRIFIED FOREST HOLBROOK 17ESE AZ, Holbrook, AZ 52 °F - - - North  at  - 0.00 in / hr 5613 ft 3:15 AM MST MADIS
Sundance Springs, Snowflake, AZ 43.2 °F 43 °F 29 °F 57% NE  at  0.0 mph 0.00 in / hr 5564 ft 3:47 AM MST Rapid Fire
McCleve Rentals, Snowflake, AZ 45.1 °F 45 °F 17 °F 34% West  at  0.8 mph 0.00 in / hr 5617 ft 3:46 AM MST Rapid Fire

Show More Stations Show Fewer Stations

What do you think?

We're not finished. Please let us know what you like, what you don't like, and what you are still missing.